NOZ6TR ESGG-EDDH
Flight info
| Callsign | NOZ6TR |
|---|---|
| Flight time | 0h 54m |
| Altitude | 34000 |
| Route | VADIN DCT ALASA/N0448F350 M852 EKERN/N0395F230 T905 BOGMU BOGMU3N |
| Aircraft | B738/M-SDE2E3FGHIRWXY/LB1 |
Departure
| Time | 2026-04-21 18:32 |
|---|---|
| Airport | Göteborg Landvetter Airport (ESGG) |
Arrival
| Time | 2026-04-21 19:26 |
|---|---|
| Airport | Hamburg Helmut Schmidt Airport (EDDH) |
| Time | Latitude | Longitude | Altitude | Speed | Heading |
|---|---|---|---|---|---|
| 2026-04-21 18:06 | 57.66891 | 12.29406 | 509 ft | 0 kts | 117° |
| 2026-04-21 18:22 | 57.66897 | 12.29384 | 509 ft | 4 kts | 121° |
| 2026-04-21 18:22 | 57.66913 | 12.29344 | 509 ft | 4 kts | 137° |
| 2026-04-21 18:23 | 57.66934 | 12.29320 | 509 ft | 4 kts | 175° |
| 2026-04-21 18:23 | 57.66947 | 12.29322 | 509 ft | 1 kts | 206° |
| 2026-04-21 18:26 | 57.66900 | 12.29280 | 508 ft | 11 kts | 206° |
| 2026-04-21 18:26 | 57.66806 | 12.29194 | 507 ft | 16 kts | 206° |
| 2026-04-21 18:26 | 57.66768 | 12.29144 | 507 ft | 9 kts | 238° |
| 2026-04-21 18:27 | 57.66788 | 12.29038 | 507 ft | 9 kts | 295° |
| 2026-04-21 18:27 | 57.66750 | 12.28918 | 506 ft | 10 kts | 208° |
| 2026-04-21 18:27 | 57.66675 | 12.28845 | 506 ft | 14 kts | 221° |
| 2026-04-21 18:27 | 57.66653 | 12.28672 | 505 ft | 14 kts | 224° |
| 2026-04-21 18:28 | 57.66598 | 12.28611 | 504 ft | 14 kts | 204° |
| 2026-04-21 18:28 | 57.66474 | 12.28500 | 503 ft | 17 kts | 205° |
| 2026-04-21 18:28 | 57.66402 | 12.28437 | 502 ft | 17 kts | 207° |
| 2026-04-21 18:28 | 57.66264 | 12.28311 | 501 ft | 16 kts | 206° |
| 2026-04-21 18:29 | 57.66196 | 12.28247 | 500 ft | 17 kts | 207° |
| 2026-04-21 18:29 | 57.66059 | 12.28123 | 491 ft | 27 kts | 205° |
| 2026-04-21 18:29 | 57.65885 | 12.27963 | 493 ft | 28 kts | 205° |
| 2026-04-21 18:29 | 57.65665 | 12.27762 | 495 ft | 25 kts | 206° |
| 2026-04-21 18:30 | 57.65562 | 12.27668 | 487 ft | 24 kts | 206° |
| 2026-04-21 18:30 | 57.65416 | 12.27532 | 486 ft | 23 kts | 207° |
| 2026-04-21 18:30 | 57.65275 | 12.27401 | 486 ft | 22 kts | 206° |
| 2026-04-21 18:30 | 57.65138 | 12.27275 | 485 ft | 22 kts | 206° |
| 2026-04-21 18:31 | 57.65005 | 12.27152 | 486 ft | 21 kts | 206° |
| 2026-04-21 18:31 | 57.64887 | 12.27037 | 480 ft | 16 kts | 225° |
| 2026-04-21 18:31 | 57.64916 | 12.26870 | 486 ft | 16 kts | 329° |
| 2026-04-21 18:31 | 57.65019 | 12.26832 | 487 ft | 16 kts | 14° |
| 2026-04-21 18:32 | 57.65198 | 12.26988 | 484 ft | 58 kts | 26° |
| 2026-04-21 18:32 | 57.65783 | 12.27519 | 495 ft | 127 kts | 26° |
| 2026-04-21 18:32 | 57.66742 | 12.28386 | 644 ft | 170 kts | 25° |
| 2026-04-21 18:32 | 57.67828 | 12.29420 | 1392 ft | 179 kts | 26° |
| 2026-04-21 18:33 | 57.68911 | 12.30519 | 2418 ft | 173 kts | 27° |
| 2026-04-21 18:33 | 57.69891 | 12.31974 | 2997 ft | 197 kts | 55° |
| 2026-04-21 18:33 | 57.70154 | 12.34507 | 3464 ft | 215 kts | 98° |
| 2026-04-21 18:33 | 57.69687 | 12.37191 | 4165 ft | 219 kts | 105° |
| 2026-04-21 18:34 | 57.69194 | 12.39934 | 4840 ft | 226 kts | 105° |
| 2026-04-21 18:34 | 57.68627 | 12.42688 | 5649 ft | 230 kts | 120° |
| 2026-04-21 18:34 | 57.67449 | 12.44729 | 6389 ft | 243 kts | 153° |
| 2026-04-21 18:34 | 57.65724 | 12.45597 | 6686 ft | 271 kts | 170° |
| 2026-04-21 18:35 | 57.63797 | 12.46030 | 7279 ft | 283 kts | 172° |
| 2026-04-21 18:35 | 57.61827 | 12.46409 | 8080 ft | 287 kts | 176° |
| 2026-04-21 18:35 | 57.59851 | 12.45778 | 8877 ft | 293 kts | 202° |
| 2026-04-21 18:35 | 57.58003 | 12.44130 | 9715 ft | 296 kts | 206° |
| 2026-04-21 18:36 | 57.56161 | 12.42355 | 10487 ft | 300 kts | 207° |
| 2026-04-21 18:36 | 57.54252 | 12.40512 | 10851 ft | 321 kts | 207° |
| 2026-04-21 18:36 | 57.52189 | 12.38541 | 11043 ft | 345 kts | 206° |
| 2026-04-21 18:36 | 57.49991 | 12.36466 | 11405 ft | 361 kts | 206° |
| 2026-04-21 18:37 | 57.47732 | 12.34354 | 12078 ft | 366 kts | 206° |
| 2026-04-21 18:37 | 57.45474 | 12.32248 | 12867 ft | 368 kts | 206° |
| 2026-04-21 18:37 | 57.43346 | 12.29576 | 13583 ft | 374 kts | 225° |
| 2026-04-21 18:37 | 57.41648 | 12.25909 | 14335 ft | 376 kts | 231° |
| 2026-04-21 18:38 | 57.39982 | 12.22128 | 14957 ft | 381 kts | 231° |
| 2026-04-21 18:38 | 57.38296 | 12.18301 | 15588 ft | 385 kts | 231° |
| 2026-04-21 18:38 | 57.36584 | 12.14444 | 16229 ft | 389 kts | 230° |
| 2026-04-21 18:38 | 57.34847 | 12.10560 | 16871 ft | 393 kts | 230° |
| 2026-04-21 18:39 | 57.33082 | 12.06639 | 17510 ft | 398 kts | 230° |
| 2026-04-21 18:39 | 57.31302 | 12.02702 | 18136 ft | 402 kts | 230° |
| 2026-04-21 18:39 | 57.29494 | 11.98714 | 18727 ft | 406 kts | 230° |
| 2026-04-21 18:39 | 57.27667 | 11.94697 | 19252 ft | 410 kts | 230° |
| 2026-04-21 18:40 | 57.25824 | 11.90649 | 19795 ft | 413 kts | 230° |
| 2026-04-21 18:40 | 57.23966 | 11.86577 | 20351 ft | 416 kts | 230° |
| 2026-04-21 18:40 | 57.22730 | 11.83869 | 20690 ft | 419 kts | 230° |
| 2026-04-21 18:40 | 57.20201 | 11.78340 | 21399 ft | 423 kts | 230° |
| 2026-04-21 18:41 | 57.18290 | 11.74168 | 21911 ft | 426 kts | 229° |
| 2026-04-21 18:41 | 57.16368 | 11.69983 | 22410 ft | 430 kts | 229° |
| 2026-04-21 18:41 | 57.14373 | 11.65832 | 22894 ft | 433 kts | 222° |
| 2026-04-21 18:41 | 57.11893 | 11.62705 | 23341 ft | 434 kts | 203° |
| 2026-04-21 18:42 | 57.09149 | 11.60533 | 23871 ft | 435 kts | 200° |
| 2026-04-21 18:42 | 57.06333 | 11.58427 | 24251 ft | 439 kts | 200° |
| 2026-04-21 18:42 | 57.03489 | 11.56328 | 24632 ft | 442 kts | 200° |
| 2026-04-21 18:42 | 57.00628 | 11.54208 | 25033 ft | 445 kts | 200° |
| 2026-04-21 18:43 | 56.97754 | 11.52061 | 25435 ft | 447 kts | 200° |
| 2026-04-21 18:43 | 56.94866 | 11.49886 | 25807 ft | 450 kts | 200° |
| 2026-04-21 18:43 | 56.91961 | 11.47687 | 26177 ft | 453 kts | 200° |
| 2026-04-21 18:43 | 56.89042 | 11.45472 | 26539 ft | 455 kts | 200° |
| 2026-04-21 18:44 | 56.86102 | 11.43239 | 26903 ft | 458 kts | 200° |
| 2026-04-21 18:44 | 56.83156 | 11.41004 | 27256 ft | 461 kts | 200° |
| 2026-04-21 18:44 | 56.80179 | 11.38749 | 27596 ft | 463 kts | 200° |
| 2026-04-21 18:44 | 56.77190 | 11.36489 | 27932 ft | 466 kts | 200° |
| 2026-04-21 18:45 | 56.74184 | 11.34221 | 28256 ft | 469 kts | 200° |
| 2026-04-21 18:45 | 56.71166 | 11.31948 | 28581 ft | 471 kts | 200° |
| 2026-04-21 18:45 | 56.68127 | 11.29664 | 28897 ft | 474 kts | 200° |
| 2026-04-21 18:45 | 56.65066 | 11.27367 | 29202 ft | 476 kts | 200° |
| 2026-04-21 18:46 | 56.61995 | 11.25067 | 29503 ft | 478 kts | 200° |
| 2026-04-21 18:46 | 56.58950 | 11.22791 | 29801 ft | 480 kts | 200° |
| 2026-04-21 18:46 | 56.55850 | 11.20477 | 30172 ft | 481 kts | 200° |
| 2026-04-21 18:46 | 56.52758 | 11.18173 | 30599 ft | 479 kts | 200° |
| 2026-04-21 18:47 | 56.49680 | 11.15882 | 30999 ft | 477 kts | 200° |
| 2026-04-21 18:47 | 56.46611 | 11.13603 | 31367 ft | 476 kts | 200° |
| 2026-04-21 18:47 | 56.43552 | 11.11335 | 31688 ft | 476 kts | 200° |
| 2026-04-21 18:47 | 56.40480 | 11.09063 | 32024 ft | 475 kts | 200° |
| 2026-04-21 18:48 | 56.37428 | 11.06809 | 32375 ft | 474 kts | 200° |
| 2026-04-21 18:48 | 56.34379 | 11.04562 | 32750 ft | 473 kts | 200° |
| 2026-04-21 18:48 | 56.31337 | 11.02323 | 33083 ft | 472 kts | 200° |
| 2026-04-21 18:48 | 56.28295 | 11.00089 | 33407 ft | 471 kts | 200° |
| 2026-04-21 18:49 | 56.25258 | 10.97862 | 33743 ft | 470 kts | 200° |
| 2026-04-21 18:49 | 56.22269 | 10.95673 | 34085 ft | 469 kts | 200° |
| 2026-04-21 18:49 | 56.20235 | 10.94186 | 34308 ft | 468 kts | 200° |
| 2026-04-21 18:50 | 56.13128 | 10.89005 | 34381 ft | 473 kts | 200° |
| 2026-04-21 18:50 | 56.07046 | 10.84585 | 34371 ft | 468 kts | 200° |
| 2026-04-21 18:51 | 56.01062 | 10.80251 | 34387 ft | 466 kts | 200° |
| 2026-04-21 18:51 | 55.95057 | 10.75918 | 34390 ft | 465 kts | 200° |
| 2026-04-21 18:52 | 55.89047 | 10.71596 | 34387 ft | 466 kts | 199° |
| 2026-04-21 18:52 | 55.83035 | 10.67288 | 34393 ft | 466 kts | 199° |
| 2026-04-21 18:53 | 55.77013 | 10.62986 | 34390 ft | 467 kts | 199° |
| 2026-04-21 18:53 | 55.70982 | 10.58692 | 34387 ft | 467 kts | 199° |
| 2026-04-21 18:54 | 55.64942 | 10.54406 | 34380 ft | 468 kts | 199° |
| 2026-04-21 18:54 | 55.58881 | 10.50119 | 34376 ft | 469 kts | 199° |
| 2026-04-21 18:55 | 55.53836 | 10.46562 | 34094 ft | 473 kts | 199° |
| 2026-04-21 18:55 | 55.49736 | 10.43679 | 33362 ft | 473 kts | 199° |
| 2026-04-21 18:55 | 55.46688 | 10.41538 | 32834 ft | 470 kts | 199° |
| 2026-04-21 18:55 | 55.43649 | 10.39406 | 32281 ft | 470 kts | 198° |
| 2026-04-21 18:56 | 55.40611 | 10.37280 | 31745 ft | 471 kts | 198° |
| 2026-04-21 18:56 | 55.37553 | 10.35145 | 31215 ft | 472 kts | 198° |
| 2026-04-21 18:56 | 55.34504 | 10.33019 | 30701 ft | 472 kts | 198° |
| 2026-04-21 18:56 | 55.31484 | 10.30917 | 30144 ft | 473 kts | 197° |
| 2026-04-21 18:57 | 55.28415 | 10.28785 | 29510 ft | 475 kts | 197° |
| 2026-04-21 18:57 | 55.25336 | 10.26650 | 28903 ft | 475 kts | 197° |
| 2026-04-21 18:57 | 55.22260 | 10.24519 | 28300 ft | 476 kts | 197° |
| 2026-04-21 18:57 | 55.19175 | 10.22385 | 27720 ft | 477 kts | 197° |
| 2026-04-21 18:58 | 55.16087 | 10.20253 | 27168 ft | 477 kts | 197° |
| 2026-04-21 18:58 | 55.12997 | 10.18123 | 26628 ft | 477 kts | 197° |
| 2026-04-21 18:58 | 55.09903 | 10.15993 | 26093 ft | 477 kts | 197° |
| 2026-04-21 18:58 | 55.06839 | 10.13885 | 25568 ft | 470 kts | 197° |
| 2026-04-21 18:59 | 55.03818 | 10.11809 | 25044 ft | 463 kts | 197° |
| 2026-04-21 18:59 | 55.00839 | 10.09766 | 24613 ft | 456 kts | 197° |
| 2026-04-21 18:59 | 54.97917 | 10.07765 | 24263 ft | 447 kts | 197° |
| 2026-04-21 18:59 | 54.95054 | 10.05810 | 23889 ft | 439 kts | 197° |
| 2026-04-21 19:00 | 54.92229 | 10.03887 | 23431 ft | 433 kts | 197° |
| 2026-04-21 19:00 | 54.89436 | 10.01989 | 22927 ft | 429 kts | 197° |
| 2026-04-21 19:00 | 54.86669 | 10.00110 | 22443 ft | 425 kts | 197° |
| 2026-04-21 19:00 | 54.83926 | 9.98250 | 21965 ft | 421 kts | 197° |
| 2026-04-21 19:01 | 54.81197 | 9.96444 | 21489 ft | 417 kts | 194° |
| 2026-04-21 19:01 | 54.78422 | 9.95225 | 21020 ft | 409 kts | 186° |
| 2026-04-21 19:01 | 54.75634 | 9.94361 | 20571 ft | 406 kts | 185° |
| 2026-04-21 19:01 | 54.72858 | 9.93525 | 20116 ft | 403 kts | 186° |
| 2026-04-21 19:02 | 54.70101 | 9.92664 | 19615 ft | 403 kts | 186° |
| 2026-04-21 19:02 | 54.67347 | 9.91776 | 19137 ft | 402 kts | 187° |
| 2026-04-21 19:02 | 54.64603 | 9.90881 | 18646 ft | 401 kts | 187° |
| 2026-04-21 19:02 | 54.61901 | 9.90008 | 18104 ft | 399 kts | 187° |
| 2026-04-21 19:03 | 54.59174 | 9.89135 | 17565 ft | 398 kts | 187° |
| 2026-04-21 19:03 | 54.56454 | 9.88267 | 17027 ft | 395 kts | 187° |
| 2026-04-21 19:03 | 54.53764 | 9.87435 | 16508 ft | 391 kts | 184° |
| 2026-04-21 19:03 | 54.51080 | 9.87337 | 15982 ft | 382 kts | 170° |
| 2026-04-21 19:04 | 54.48503 | 9.88202 | 15489 ft | 374 kts | 159° |
| 2026-04-21 19:04 | 54.46121 | 9.89883 | 14999 ft | 367 kts | 151° |
| 2026-04-21 19:04 | 54.43826 | 9.91779 | 14514 ft | 364 kts | 150° |
| 2026-04-21 19:04 | 54.41549 | 9.93680 | 14060 ft | 361 kts | 150° |
| 2026-04-21 19:05 | 54.39309 | 9.95539 | 13728 ft | 353 kts | 150° |
| 2026-04-21 19:05 | 54.37111 | 9.97350 | 13378 ft | 347 kts | 150° |
| 2026-04-21 19:05 | 54.34952 | 9.99116 | 13088 ft | 340 kts | 151° |
| 2026-04-21 19:05 | 54.32835 | 10.00838 | 12817 ft | 333 kts | 151° |
| 2026-04-21 19:06 | 54.30757 | 10.02525 | 12549 ft | 326 kts | 151° |
| 2026-04-21 19:06 | 54.28720 | 10.04175 | 12292 ft | 323 kts | 151° |
| 2026-04-21 19:06 | 54.26717 | 10.05796 | 12036 ft | 321 kts | 151° |
| 2026-04-21 19:06 | 54.24704 | 10.07423 | 11798 ft | 319 kts | 151° |
| 2026-04-21 19:07 | 54.22701 | 10.09039 | 11581 ft | 319 kts | 151° |
| 2026-04-21 19:07 | 54.20686 | 10.10665 | 11435 ft | 321 kts | 151° |
| 2026-04-21 19:07 | 54.18652 | 10.12303 | 11389 ft | 324 kts | 151° |
| 2026-04-21 19:07 | 54.16612 | 10.13943 | 11380 ft | 324 kts | 151° |
| 2026-04-21 19:08 | 54.14599 | 10.15557 | 11366 ft | 315 kts | 151° |
| 2026-04-21 19:08 | 54.12663 | 10.17104 | 11355 ft | 300 kts | 151° |
| 2026-04-21 19:08 | 54.10812 | 10.18585 | 11321 ft | 288 kts | 151° |
| 2026-04-21 19:08 | 54.09004 | 10.20034 | 11048 ft | 286 kts | 150° |
| 2026-04-21 19:09 | 54.07218 | 10.21466 | 10807 ft | 282 kts | 150° |
| 2026-04-21 19:09 | 54.05409 | 10.22722 | 10540 ft | 284 kts | 166° |
| 2026-04-21 19:09 | 54.03433 | 10.22486 | 10436 ft | 289 kts | 195° |
| 2026-04-21 19:09 | 54.01620 | 10.20912 | 10415 ft | 299 kts | 214° |
| 2026-04-21 19:10 | 53.99957 | 10.18709 | 10401 ft | 305 kts | 217° |
| 2026-04-21 19:10 | 53.98312 | 10.16423 | 10375 ft | 305 kts | 218° |
| 2026-04-21 19:10 | 53.96697 | 10.14161 | 10364 ft | 304 kts | 218° |
| 2026-04-21 19:10 | 53.95061 | 10.11878 | 10364 ft | 304 kts | 217° |
| 2026-04-21 19:11 | 53.93416 | 10.09595 | 10232 ft | 307 kts | 217° |
| 2026-04-21 19:11 | 53.91751 | 10.07297 | 9959 ft | 310 kts | 217° |
| 2026-04-21 19:11 | 53.90079 | 10.04998 | 9680 ft | 307 kts | 217° |
| 2026-04-21 19:11 | 53.88425 | 10.02732 | 9400 ft | 304 kts | 217° |
| 2026-04-21 19:12 | 53.87343 | 10.01251 | 9225 ft | 301 kts | 217° |
| 2026-04-21 19:12 | 53.85170 | 9.98284 | 8866 ft | 297 kts | 217° |
| 2026-04-21 19:12 | 53.83568 | 9.96102 | 8606 ft | 294 kts | 217° |
| 2026-04-21 19:12 | 53.81977 | 9.93937 | 8343 ft | 292 kts | 217° |
| 2026-04-21 19:13 | 53.80396 | 9.91789 | 8084 ft | 290 kts | 217° |
| 2026-04-21 19:13 | 53.78826 | 9.89657 | 7829 ft | 288 kts | 217° |
| 2026-04-21 19:13 | 53.77265 | 9.87542 | 7589 ft | 287 kts | 217° |
| 2026-04-21 19:13 | 53.75716 | 9.85444 | 7427 ft | 285 kts | 217° |
| 2026-04-21 19:14 | 53.74174 | 9.83357 | 7365 ft | 283 kts | 217° |
| 2026-04-21 19:14 | 53.72645 | 9.81289 | 7315 ft | 281 kts | 217° |
| 2026-04-21 19:14 | 53.71124 | 9.79236 | 7089 ft | 283 kts | 217° |
| 2026-04-21 19:14 | 53.69592 | 9.77168 | 6829 ft | 281 kts | 217° |
| 2026-04-21 19:15 | 53.68074 | 9.75122 | 6538 ft | 277 kts | 217° |
| 2026-04-21 19:15 | 53.66579 | 9.73107 | 6242 ft | 273 kts | 217° |
| 2026-04-21 19:15 | 53.65602 | 9.71793 | 6037 ft | 270 kts | 217° |
| 2026-04-21 19:15 | 53.63657 | 9.69176 | 5616 ft | 265 kts | 217° |
| 2026-04-21 19:16 | 53.62706 | 9.67899 | 5411 ft | 262 kts | 217° |
| 2026-04-21 19:16 | 53.61281 | 9.65986 | 5109 ft | 260 kts | 216° |
| 2026-04-21 19:16 | 53.59863 | 9.64085 | 4802 ft | 261 kts | 216° |
| 2026-04-21 19:16 | 53.57977 | 9.61558 | 4366 ft | 262 kts | 216° |
| 2026-04-21 19:17 | 53.55585 | 9.58356 | 3878 ft | 259 kts | 217° |
| 2026-04-21 19:17 | 53.54189 | 9.56488 | 3639 ft | 254 kts | 216° |
| 2026-04-21 19:17 | 53.52817 | 9.54657 | 3469 ft | 248 kts | 216° |
| 2026-04-21 19:18 | 53.51484 | 9.52878 | 3349 ft | 241 kts | 216° |
| 2026-04-21 19:18 | 53.50182 | 9.51186 | 3252 ft | 231 kts | 208° |
| 2026-04-21 19:18 | 53.48721 | 9.50321 | 3110 ft | 220 kts | 177° |
| 2026-04-21 19:18 | 53.47347 | 9.51093 | 3036 ft | 209 kts | 134° |
| 2026-04-21 19:19 | 53.46710 | 9.53105 | 3007 ft | 193 kts | 91° |
| 2026-04-21 19:19 | 53.46791 | 9.55344 | 3045 ft | 194 kts | 84° |
| 2026-04-21 19:19 | 53.46923 | 9.57605 | 3032 ft | 194 kts | 84° |
| 2026-04-21 19:19 | 53.47056 | 9.59847 | 3036 ft | 192 kts | 84° |
| 2026-04-21 19:20 | 53.47187 | 9.62068 | 3023 ft | 191 kts | 84° |
| 2026-04-21 19:20 | 53.47321 | 9.64280 | 3015 ft | 190 kts | 83° |
| 2026-04-21 19:20 | 53.47455 | 9.66486 | 3016 ft | 190 kts | 83° |
| 2026-04-21 19:20 | 53.47648 | 9.68651 | 3000 ft | 185 kts | 69° |
| 2026-04-21 19:21 | 53.48484 | 9.70225 | 3042 ft | 184 kts | 38° |
| 2026-04-21 19:21 | 53.49454 | 9.71632 | 3023 ft | 181 kts | 47° |
| 2026-04-21 19:21 | 53.50282 | 9.73146 | 3006 ft | 172 kts | 50° |
| 2026-04-21 19:21 | 53.51053 | 9.74657 | 3009 ft | 168 kts | 51° |
| 2026-04-21 19:22 | 53.51806 | 9.76099 | 2992 ft | 158 kts | 50° |
| 2026-04-21 19:22 | 53.52504 | 9.77443 | 2994 ft | 151 kts | 51° |
| 2026-04-21 19:22 | 53.53182 | 9.78795 | 2850 ft | 151 kts | 51° |
| 2026-04-21 19:22 | 53.53854 | 9.80157 | 2642 ft | 151 kts | 52° |
| 2026-04-21 19:23 | 53.54514 | 9.81497 | 2436 ft | 148 kts | 52° |
| 2026-04-21 19:23 | 53.55158 | 9.82809 | 2243 ft | 142 kts | 52° |
| 2026-04-21 19:23 | 53.55775 | 9.84063 | 2076 ft | 140 kts | 51° |
| 2026-04-21 19:23 | 53.56400 | 9.85337 | 1856 ft | 142 kts | 51° |
| 2026-04-21 19:24 | 53.57030 | 9.86619 | 1653 ft | 142 kts | 51° |
| 2026-04-21 19:24 | 53.57656 | 9.87895 | 1456 ft | 140 kts | 51° |
| 2026-04-21 19:24 | 53.58275 | 9.89154 | 1265 ft | 139 kts | 51° |
| 2026-04-21 19:24 | 53.58887 | 9.90397 | 1043 ft | 140 kts | 51° |
| 2026-04-21 19:25 | 53.59517 | 9.91677 | 844 ft | 141 kts | 50° |
| 2026-04-21 19:25 | 53.60147 | 9.92957 | 641 ft | 143 kts | 49° |
| 2026-04-21 19:25 | 53.60773 | 9.94237 | 438 ft | 141 kts | 49° |
| 2026-04-21 19:25 | 53.61395 | 9.95482 | 261 ft | 142 kts | 48° |
| 2026-04-21 19:26 | 53.62024 | 9.96771 | 59 ft | 142 kts | 49° |
| 2026-04-21 19:26 | 53.62604 | 9.97947 | 40 ft | 113 kts | 50° |
| 2026-04-21 19:26 | 53.63024 | 9.98799 | 45 ft | 82 kts | 50° |
| 2026-04-21 19:26 | 53.63286 | 9.99375 | 43 ft | 27 kts | 77° |
| 2026-04-21 19:27 | 53.63290 | 9.99538 | 37 ft | 10 kts | 99° |
| 2026-04-21 19:27 | 53.63281 | 9.99625 | 47 ft | 0 kts | 101° |
| 2026-04-21 19:27 | 53.63280 | 9.99632 | 47 ft | 0 kts | 101° |
| 2026-04-21 19:28 | 53.63279 | 9.99643 | 47 ft | 4 kts | 101° |
| 2026-04-21 19:28 | 53.63268 | 9.99704 | 45 ft | 7 kts | 114° |
| 2026-04-21 19:28 | 53.63209 | 9.99773 | 46 ft | 13 kts | 154° |
| 2026-04-21 19:29 | 53.63124 | 9.99846 | 47 ft | 14 kts | 152° |
| 2026-04-21 19:29 | 53.63043 | 9.99918 | 47 ft | 13 kts | 152° |
| 2026-04-21 19:29 | 53.62964 | 9.99988 | 47 ft | 13 kts | 153° |
| 2026-04-21 19:29 | 53.62884 | 10.00045 | 47 ft | 12 kts | 165° |
| 2026-04-21 19:30 | 53.62808 | 10.00105 | 47 ft | 12 kts | 152° |
| 2026-04-21 19:30 | 53.62736 | 10.00167 | 45 ft | 10 kts | 153° |
| 2026-04-21 19:30 | 53.62709 | 10.00208 | 45 ft | 2 kts | 74° |
| 2026-04-21 19:30 | 53.62719 | 10.00243 | 47 ft | 5 kts | 60° |
| 2026-04-21 19:31 | 53.62731 | 10.00282 | 46 ft | 2 kts | 62° |
| 2026-04-21 19:31 | 53.62735 | 10.00296 | 47 ft | 1 kts | 62° |
| 2026-04-21 19:31 | 53.62738 | 10.00306 | 47 ft | 1 kts | 62° |
| 2026-04-21 19:31 | 53.62739 | 10.00308 | 47 ft | 1 kts | 62° |
| 2026-04-21 19:32 | 53.62740 | 10.00311 | 47 ft | 0 kts | 62° |